sensor_id;sensor_type;location;lat;lon;timestamp;P1;durP1;ratioP1;P2;durP2;ratioP2
6505;SDS011;3286;49.858;8.768;2023-08-20T00:00:19;5.88;;;4.28;;
6505;SDS011;3286;49.858;8.768;2023-08-20T00:02:47;10.27;;;4.72;;
6505;SDS011;3286;49.858;8.768;2023-08-20T00:05:21;7.80;;;4.47;;
6505;SDS011;3286;49.858;8.768;2023-08-20T00:07:48;11.55;;;4.13;;
6505;SDS011;3286;49.858;8.768;2023-08-20T00:10:15;11.95;;;4.30;;
6505;SDS011;3286;49.858;8.768;2023-08-20T00:12:42;7.95;;;4.25;;
6505;SDS011;3286;49.858;8.768;2023-08-20T00:15:11;8.50;;;4.20;;
6505;SDS011;3286;49.858;8.768;2023-08-20T00:17:38;8.20;;;4.78;;
6505;SDS011;3286;49.858;8.768;2023-08-20T00:20:07;5.78;;;4.22;;
6505;SDS011;3286;49.858;8.768;2023-08-20T00:22:37;6.38;;;4.00;;
6505;SDS011;3286;49.858;8.768;2023-08-20T00:25:05;8.30;;;4.18;;
6505;SDS011;3286;49.858;8.768;2023-08-20T00:27:33;7.53;;;4.57;;
6505;SDS011;3286;49.858;8.768;2023-08-20T00:29:59;7.93;;;4.63;;
6505;SDS011;3286;49.858;8.768;2023-08-20T00:32:27;11.05;;;4.47;;
6505;SDS011;3286;49.858;8.768;2023-08-20T00:34:54;10.93;;;5.00;;
6505;SDS011;3286;49.858;8.768;2023-08-20T00:37:21;6.57;;;4.70;;
6505;SDS011;3286;49.858;8.768;2023-08-20T00:39:47;6.63;;;4.80;;
6505;SDS011;3286;49.858;8.768;2023-08-20T00:42:14;6.30;;;4.22;;
6505;SDS011;3286;49.858;8.768;2023-08-20T00:44:41;8.05;;;4.22;;
6505;SDS011;3286;49.858;8.768;2023-08-20T00:47:09;7.53;;;4.35;;
6505;SDS011;3286;49.858;8.768;2023-08-20T00:49:38;5.72;;;4.07;;
6505;SDS011;3286;49.858;8.768;2023-08-20T00:52:06;4.97;;;4.15;;
6505;SDS011;3286;49.858;8.768;2023-08-20T00:54:34;6.43;;;4.22;;
6505;SDS011;3286;49.858;8.768;2023-08-20T00:57:01;4.85;;;4.32;;
6505;SDS011;3286;49.858;8.768;2023-08-20T00:59:28;5.55;;;4.43;;
6505;SDS011;3286;49.858;8.768;2023-08-20T01:01:57;7.18;;;4.20;;
6505;SDS011;3286;49.858;8.768;2023-08-20T01:04:24;7.68;;;4.50;;
6505;SDS011;3286;49.858;8.768;2023-08-20T01:06:53;6.00;;;4.55;;
6505;SDS011;3286;49.858;8.768;2023-08-20T01:09:27;7.03;;;4.50;;
6505;SDS011;3286;49.858;8.768;2023-08-20T01:12:02;8.85;;;4.40;;
6505;SDS011;3286;49.858;8.768;2023-08-20T01:14:29;7.68;;;4.40;;
6505;SDS011;3286;49.858;8.768;2023-08-20T01:16:56;7.25;;;4.60;;
6505;SDS011;3286;49.858;8.768;2023-08-20T01:19:23;5.35;;;4.85;;
6505;SDS011;3286;49.858;8.768;2023-08-20T01:21:56;11.88;;;5.13;;
6505;SDS011;3286;49.858;8.768;2023-08-20T01:24:44;6.18;;;5.03;;
6505;SDS011;3286;49.858;8.768;2023-08-20T01:27:25;8.07;;;4.45;;
6505;SDS011;3286;49.858;8.768;2023-08-20T01:30:02;6.15;;;4.80;;
6505;SDS011;3286;49.858;8.768;2023-08-20T01:32:30;8.93;;;4.75;;
6505;SDS011;3286;49.858;8.768;2023-08-20T01:34:57;8.73;;;5.50;;
6505;SDS011;3286;49.858;8.768;2023-08-20T01:37:23;5.93;;;4.85;;
6505;SDS011;3286;49.858;8.768;2023-08-20T01:39:50;6.93;;;4.72;;
6505;SDS011;3286;49.858;8.768;2023-08-20T01:42:17;7.10;;;5.00;;
6505;SDS011;3286;49.858;8.768;2023-08-20T01:44:44;6.13;;;4.78;;
6505;SDS011;3286;49.858;8.768;2023-08-20T01:47:12;6.97;;;4.95;;
6505;SDS011;3286;49.858;8.768;2023-08-20T01:49:39;7.75;;;5.00;;
6505;SDS011;3286;49.858;8.768;2023-08-20T01:52:05;7.78;;;5.10;;
6505;SDS011;3286;49.858;8.768;2023-08-20T01:54:32;9.77;;;5.55;;
6505;SDS011;3286;49.858;8.768;2023-08-20T01:56:58;10.50;;;5.03;;
6505;SDS011;3286;49.858;8.768;2023-08-20T01:59:25;8.05;;;4.65;;
6505;SDS011;3286;49.858;8.768;2023-08-20T02:01:52;6.97;;;5.07;;
6505;SDS011;3286;49.858;8.768;2023-08-20T02:04:20;5.85;;;4.80;;
6505;SDS011;3286;49.858;8.768;2023-08-20T02:06:46;7.28;;;4.78;;
6505;SDS011;3286;49.858;8.768;2023-08-20T02:09:13;5.35;;;4.72;;
6505;SDS011;3286;49.858;8.768;2023-08-20T02:11:40;7.47;;;4.85;;
6505;SDS011;3286;49.858;8.768;2023-08-20T02:14:06;5.97;;;4.70;;
6505;SDS011;3286;49.858;8.768;2023-08-20T02:16:33;8.70;;;5.05;;
6505;SDS011;3286;49.858;8.768;2023-08-20T02:18:59;6.53;;;4.93;;
6505;SDS011;3286;49.858;8.768;2023-08-20T02:21:29;6.47;;;5.05;;
6505;SDS011;3286;49.858;8.768;2023-08-20T02:23:55;6.30;;;5.57;;
6505;SDS011;3286;49.858;8.768;2023-08-20T02:26:22;7.55;;;5.32;;
6505;SDS011;3286;49.858;8.768;2023-08-20T02:28:49;13.77;;;5.43;;
6505;SDS011;3286;49.858;8.768;2023-08-20T02:31:15;8.85;;;4.97;;
6505;SDS011;3286;49.858;8.768;2023-08-20T02:33:42;12.60;;;4.75;;
6505;SDS011;3286;49.858;8.768;2023-08-20T02:36:09;8.45;;;4.85;;
6505;SDS011;3286;49.858;8.768;2023-08-20T02:38:37;8.23;;;5.53;;
6505;SDS011;3286;49.858;8.768;2023-08-20T02:41:04;6.30;;;5.30;;
6505;SDS011;3286;49.858;8.768;2023-08-20T02:43:30;7.72;;;4.93;;
6505;SDS011;3286;49.858;8.768;2023-08-20T02:45:57;7.60;;;4.65;;
6505;SDS011;3286;49.858;8.768;2023-08-20T02:48:24;6.00;;;5.05;;
6505;SDS011;3286;49.858;8.768;2023-08-20T02:50:52;8.25;;;5.13;;
6505;SDS011;3286;49.858;8.768;2023-08-20T02:53:19;11.73;;;5.10;;
6505;SDS011;3286;49.858;8.768;2023-08-20T02:55:47;10.18;;;5.68;;
6505;SDS011;3286;49.858;8.768;2023-08-20T02:58:14;10.95;;;5.30;;
6505;SDS011;3286;49.858;8.768;2023-08-20T03:00:41;8.63;;;5.65;;
6505;SDS011;3286;49.858;8.768;2023-08-20T03:03:08;9.80;;;5.40;;
6505;SDS011;3286;49.858;8.768;2023-08-20T03:05:34;7.18;;;5.85;;
6505;SDS011;3286;49.858;8.768;2023-08-20T03:08:01;7.72;;;5.50;;
6505;SDS011;3286;49.858;8.768;2023-08-20T03:10:29;9.63;;;5.68;;
6505;SDS011;3286;49.858;8.768;2023-08-20T03:12:58;6.88;;;5.53;;
6505;SDS011;3286;49.858;8.768;2023-08-20T03:15:25;6.43;;;5.35;;
6505;SDS011;3286;49.858;8.768;2023-08-20T03:17:51;8.07;;;5.28;;
6505;SDS011;3286;49.858;8.768;2023-08-20T03:20:18;8.52;;;5.45;;
6505;SDS011;3286;49.858;8.768;2023-08-20T03:22:44;9.00;;;5.57;;
6505;SDS011;3286;49.858;8.768;2023-08-20T03:25:11;7.72;;;5.60;;
6505;SDS011;3286;49.858;8.768;2023-08-20T03:27:38;7.13;;;5.95;;
6505;SDS011;3286;49.858;8.768;2023-08-20T03:30:06;10.35;;;5.10;;
6505;SDS011;3286;49.858;8.768;2023-08-20T03:32:33;6.65;;;5.25;;
6505;SDS011;3286;49.858;8.768;2023-08-20T03:35:00;9.25;;;5.57;;
6505;SDS011;3286;49.858;8.768;2023-08-20T03:37:27;11.77;;;5.78;;
6505;SDS011;3286;49.858;8.768;2023-08-20T03:39:53;7.90;;;5.40;;
6505;SDS011;3286;49.858;8.768;2023-08-20T03:42:20;11.48;;;6.05;;
6505;SDS011;3286;49.858;8.768;2023-08-20T03:44:47;10.95;;;6.35;;
6505;SDS011;3286;49.858;8.768;2023-08-20T03:47:15;8.38;;;6.43;;
6505;SDS011;3286;49.858;8.768;2023-08-20T03:49:45;8.02;;;6.70;;
6505;SDS011;3286;49.858;8.768;2023-08-20T03:52:12;10.57;;;6.32;;
6505;SDS011;3286;49.858;8.768;2023-08-20T03:54:38;7.72;;;5.97;;
6505;SDS011;3286;49.858;8.768;2023-08-20T03:57:05;10.60;;;6.03;;
6505;SDS011;3286;49.858;8.768;2023-08-20T03:59:32;9.73;;;5.28;;
6505;SDS011;3286;49.858;8.768;2023-08-20T04:01:59;8.85;;;5.35;;
6505;SDS011;3286;49.858;8.768;2023-08-20T04:04:27;11.20;;;5.70;;
6505;SDS011;3286;49.858;8.768;2023-08-20T04:06:53;14.27;;;5.70;;
6505;SDS011;3286;49.858;8.768;2023-08-20T04:09:20;8.48;;;5.53;;
6505;SDS011;3286;49.858;8.768;2023-08-20T04:11:47;9.30;;;5.88;;
6505;SDS011;3286;49.858;8.768;2023-08-20T04:14:13;8.73;;;5.90;;
6505;SDS011;3286;49.858;8.768;2023-08-20T04:16:40;7.35;;;6.07;;
6505;SDS011;3286;49.858;8.768;2023-08-20T04:19:06;48.92;;;16.00;;
6505;SDS011;3286;49.858;8.768;2023-08-20T04:21:34;9.20;;;6.45;;
6505;SDS011;3286;49.858;8.768;2023-08-20T04:24:01;7.35;;;6.57;;
6505;SDS011;3286;49.858;8.768;2023-08-20T04:26:28;14.60;;;6.28;;
6505;SDS011;3286;49.858;8.768;2023-08-20T04:28:54;29.67;;;10.80;;
6505;SDS011;3286;49.858;8.768;2023-08-20T04:31:21;10.70;;;6.65;;
6505;SDS011;3286;49.858;8.768;2023-08-20T04:33:47;10.85;;;6.70;;
6505;SDS011;3286;49.858;8.768;2023-08-20T04:36:14;10.07;;;6.40;;
6505;SDS011;3286;49.858;8.768;2023-08-20T04:38:42;9.40;;;6.30;;
6505;SDS011;3286;49.858;8.768;2023-08-20T04:41:09;12.90;;;6.20;;
6505;SDS011;3286;49.858;8.768;2023-08-20T04:43:35;9.27;;;7.25;;
6505;SDS011;3286;49.858;8.768;2023-08-20T04:46:02;11.73;;;6.78;;
6505;SDS011;3286;49.858;8.768;2023-08-20T04:48:28;7.38;;;5.70;;
6505;SDS011;3286;49.858;8.768;2023-08-20T04:50:55;10.18;;;6.20;;
6505;SDS011;3286;49.858;8.768;2023-08-20T04:53:22;13.60;;;6.22;;
6505;SDS011;3286;49.858;8.768;2023-08-20T04:55:50;7.78;;;5.53;;
6505;SDS011;3286;49.858;8.768;2023-08-20T04:58:16;8.13;;;6.38;;
6505;SDS011;3286;49.858;8.768;2023-08-20T05:00:43;9.25;;;6.05;;
6505;SDS011;3286;49.858;8.768;2023-08-20T05:03:09;7.82;;;6.00;;
6505;SDS011;3286;49.858;8.768;2023-08-20T05:05:36;8.38;;;6.13;;
6505;SDS011;3286;49.858;8.768;2023-08-20T05:08:03;10.20;;;6.15;;
6505;SDS011;3286;49.858;8.768;2023-08-20T05:10:30;10.77;;;6.45;;
6505;SDS011;3286;49.858;8.768;2023-08-20T05:12:58;9.30;;;6.43;;
6505;SDS011;3286;49.858;8.768;2023-08-20T05:15:24;7.93;;;5.93;;
6505;SDS011;3286;49.858;8.768;2023-08-20T05:17:51;10.95;;;6.35;;
6505;SDS011;3286;49.858;8.768;2023-08-20T05:20:18;11.60;;;6.75;;
6505;SDS011;3286;49.858;8.768;2023-08-20T05:22:44;8.48;;;5.88;;
6505;SDS011;3286;49.858;8.768;2023-08-20T05:25:11;7.50;;;5.97;;
6505;SDS011;3286;49.858;8.768;2023-08-20T05:27:37;8.07;;;6.45;;
6505;SDS011;3286;49.858;8.768;2023-08-20T05:30:06;9.45;;;6.40;;
6505;SDS011;3286;49.858;8.768;2023-08-20T05:32:34;8.13;;;6.38;;
6505;SDS011;3286;49.858;8.768;2023-08-20T05:35:01;10.05;;;6.57;;
6505;SDS011;3286;49.858;8.768;2023-08-20T05:37:29;8.10;;;6.57;;
6505;SDS011;3286;49.858;8.768;2023-08-20T05:39:55;12.02;;;6.95;;
6505;SDS011;3286;49.858;8.768;2023-08-20T05:42:22;10.27;;;6.85;;
6505;SDS011;3286;49.858;8.768;2023-08-20T05:44:48;8.07;;;6.82;;
6505;SDS011;3286;49.858;8.768;2023-08-20T05:47:16;12.90;;;7.22;;
6505;SDS011;3286;49.858;8.768;2023-08-20T05:49:43;11.23;;;7.10;;
6505;SDS011;3286;49.858;8.768;2023-08-20T05:52:10;10.48;;;6.82;;
6505;SDS011;3286;49.858;8.768;2023-08-20T05:54:36;8.98;;;6.63;;
6505;SDS011;3286;49.858;8.768;2023-08-20T05:57:03;9.38;;;7.05;;
6505;SDS011;3286;49.858;8.768;2023-08-20T05:59:29;10.57;;;7.30;;
6505;SDS011;3286;49.858;8.768;2023-08-20T06:01:56;8.02;;;6.78;;
6505;SDS011;3286;49.858;8.768;2023-08-20T06:04:24;11.30;;;6.93;;
6505;SDS011;3286;49.858;8.768;2023-08-20T06:06:51;10.63;;;6.65;;
6505;SDS011;3286;49.858;8.768;2023-08-20T06:09:17;10.05;;;7.35;;
6505;SDS011;3286;49.858;8.768;2023-08-20T06:11:44;15.13;;;7.25;;
6505;SDS011;3286;49.858;8.768;2023-08-20T06:14:11;8.45;;;6.88;;
6505;SDS011;3286;49.858;8.768;2023-08-20T06:16:38;8.15;;;6.55;;
6505;SDS011;3286;49.858;8.768;2023-08-20T06:19:05;7.65;;;6.63;;
6505;SDS011;3286;49.858;8.768;2023-08-20T06:21:33;13.95;;;7.72;;
6505;SDS011;3286;49.858;8.768;2023-08-20T06:23:59;10.38;;;6.72;;
6505;SDS011;3286;49.858;8.768;2023-08-20T06:26:26;7.68;;;6.75;;
6505;SDS011;3286;49.858;8.768;2023-08-20T06:28:53;10.60;;;6.40;;
6505;SDS011;3286;49.858;8.768;2023-08-20T06:31:19;7.57;;;6.57;;
6505;SDS011;3286;49.858;8.768;2023-08-20T06:33:46;13.00;;;6.68;;
6505;SDS011;3286;49.858;8.768;2023-08-20T06:36:13;9.93;;;6.47;;
6505;SDS011;3286;49.858;8.768;2023-08-20T06:38:41;10.77;;;6.47;;
6505;SDS011;3286;49.858;8.768;2023-08-20T06:41:07;10.65;;;6.28;;
6505;SDS011;3286;49.858;8.768;2023-08-20T06:43:34;9.52;;;6.60;;
6505;SDS011;3286;49.858;8.768;2023-08-20T06:46:01;14.32;;;6.18;;
6505;SDS011;3286;49.858;8.768;2023-08-20T06:48:27;10.90;;;6.80;;
6505;SDS011;3286;49.858;8.768;2023-08-20T06:50:54;7.35;;;6.07;;
6505;SDS011;3286;49.858;8.768;2023-08-20T06:53:20;11.82;;;6.50;;
6505;SDS011;3286;49.858;8.768;2023-08-20T06:55:48;12.95;;;5.93;;
6505;SDS011;3286;49.858;8.768;2023-08-20T06:58:15;9.45;;;6.13;;
6505;SDS011;3286;49.858;8.768;2023-08-20T07:00:42;6.60;;;5.90;;
6505;SDS011;3286;49.858;8.768;2023-08-20T07:03:09;12.57;;;6.68;;
6505;SDS011;3286;49.858;8.768;2023-08-20T07:05:36;7.72;;;6.22;;
6505;SDS011;3286;49.858;8.768;2023-08-20T07:08:02;10.52;;;5.88;;
6505;SDS011;3286;49.858;8.768;2023-08-20T07:10:30;8.85;;;5.78;;
6505;SDS011;3286;49.858;8.768;2023-08-20T07:12:58;7.75;;;6.00;;
6505;SDS011;3286;49.858;8.768;2023-08-20T07:15:25;10.18;;;5.90;;
6505;SDS011;3286;49.858;8.768;2023-08-20T07:17:52;7.47;;;6.00;;
6505;SDS011;3286;49.858;8.768;2023-08-20T07:20:18;8.10;;;5.93;;
6505;SDS011;3286;49.858;8.768;2023-08-20T07:22:45;8.02;;;5.90;;
6505;SDS011;3286;49.858;8.768;2023-08-20T07:25:12;7.47;;;6.00;;
6505;SDS011;3286;49.858;8.768;2023-08-20T07:27:38;7.78;;;5.70;;
6505;SDS011;3286;49.858;8.768;2023-08-20T07:30:07;7.35;;;5.78;;
6505;SDS011;3286;49.858;8.768;2023-08-20T07:32:34;6.38;;;5.20;;
6505;SDS011;3286;49.858;8.768;2023-08-20T07:35:00;9.32;;;6.32;;
6505;SDS011;3286;49.858;8.768;2023-08-20T07:37:27;8.93;;;6.38;;
6505;SDS011;3286;49.858;8.768;2023-08-20T07:39:54;7.03;;;5.57;;
6505;SDS011;3286;49.858;8.768;2023-08-20T07:42:20;8.27;;;5.82;;
6505;SDS011;3286;49.858;8.768;2023-08-20T07:44:47;7.18;;;5.90;;
6505;SDS011;3286;49.858;8.768;2023-08-20T07:47:15;8.95;;;5.00;;
6505;SDS011;3286;49.858;8.768;2023-08-20T07:49:41;10.77;;;5.65;;
6505;SDS011;3286;49.858;8.768;2023-08-20T07:52:08;7.40;;;5.72;;
6505;SDS011;3286;49.858;8.768;2023-08-20T07:54:35;7.68;;;5.00;;
6505;SDS011;3286;49.858;8.768;2023-08-20T07:57:02;5.18;;;4.68;;
6505;SDS011;3286;49.858;8.768;2023-08-20T07:59:28;5.82;;;4.72;;
6505;SDS011;3286;49.858;8.768;2023-08-20T08:01:55;7.20;;;5.25;;
6505;SDS011;3286;49.858;8.768;2023-08-20T08:04:24;7.28;;;5.38;;
6505;SDS011;3286;49.858;8.768;2023-08-20T08:06:51;12.52;;;5.35;;
6505;SDS011;3286;49.858;8.768;2023-08-20T08:09:18;6.10;;;5.05;;
6505;SDS011;3286;49.858;8.768;2023-08-20T08:11:46;12.88;;;5.35;;
6505;SDS011;3286;49.858;8.768;2023-08-20T08:14:13;8.32;;;6.25;;
6505;SDS011;3286;49.858;8.768;2023-08-20T08:16:40;6.40;;;4.97;;
6505;SDS011;3286;49.858;8.768;2023-08-20T08:19:06;6.68;;;5.60;;
6505;SDS011;3286;49.858;8.768;2023-08-20T08:21:34;8.82;;;5.28;;
6505;SDS011;3286;49.858;8.768;2023-08-20T08:24:01;8.00;;;5.82;;
6505;SDS011;3286;49.858;8.768;2023-08-20T08:26:28;7.00;;;5.55;;
6505;SDS011;3286;49.858;8.768;2023-08-20T08:28:55;8.55;;;5.72;;
6505;SDS011;3286;49.858;8.768;2023-08-20T08:31:22;6.88;;;5.20;;
6505;SDS011;3286;49.858;8.768;2023-08-20T08:33:49;14.60;;;5.45;;
6505;SDS011;3286;49.858;8.768;2023-08-20T08:36:16;10.88;;;5.38;;
6505;SDS011;3286;49.858;8.768;2023-08-20T08:38:44;8.65;;;5.55;;
6505;SDS011;3286;49.858;8.768;2023-08-20T08:41:11;6.22;;;4.95;;
6505;SDS011;3286;49.858;8.768;2023-08-20T08:43:38;7.68;;;5.07;;
6505;SDS011;3286;49.858;8.768;2023-08-20T08:46:06;8.07;;;5.43;;
6505;SDS011;3286;49.858;8.768;2023-08-20T08:48:34;6.63;;;5.28;;
6505;SDS011;3286;49.858;8.768;2023-08-20T08:51:01;7.60;;;5.18;;
6505;SDS011;3286;49.858;8.768;2023-08-20T08:53:28;5.25;;;4.75;;
6505;SDS011;3286;49.858;8.768;2023-08-20T08:55:58;6.45;;;5.10;;
6505;SDS011;3286;49.858;8.768;2023-08-20T08:58:25;6.05;;;4.88;;
6505;SDS011;3286;49.858;8.768;2023-08-20T09:00:52;6.45;;;5.22;;
6505;SDS011;3286;49.858;8.768;2023-08-20T09:03:19;5.60;;;4.93;;
6505;SDS011;3286;49.858;8.768;2023-08-20T09:05:46;13.32;;;5.20;;
6505;SDS011;3286;49.858;8.768;2023-08-20T09:08:18;7.45;;;5.00;;
6505;SDS011;3286;49.858;8.768;2023-08-20T09:10:45;6.95;;;5.13;;
6505;SDS011;3286;49.858;8.768;2023-08-20T09:13:13;14.20;;;10.85;;
6505;SDS011;3286;49.858;8.768;2023-08-20T09:15:40;7.32;;;5.35;;
6505;SDS011;3286;49.858;8.768;2023-08-20T09:18:09;6.15;;;5.30;;
6505;SDS011;3286;49.858;8.768;2023-08-20T09:20:36;9.50;;;4.70;;
6505;SDS011;3286;49.858;8.768;2023-08-20T09:23:03;8.95;;;4.88;;
6505;SDS011;3286;49.858;8.768;2023-08-20T09:25:30;6.10;;;4.60;;
6505;SDS011;3286;49.858;8.768;2023-08-20T09:27:56;7.13;;;4.70;;
6505;SDS011;3286;49.858;8.768;2023-08-20T09:30:24;7.50;;;4.72;;
6505;SDS011;3286;49.858;8.768;2023-08-20T09:33:04;5.80;;;4.70;;
6505;SDS011;3286;49.858;8.768;2023-08-20T09:35:31;6.93;;;4.80;;
6505;SDS011;3286;49.858;8.768;2023-08-20T09:37:58;6.30;;;4.88;;
6505;SDS011;3286;49.858;8.768;2023-08-20T09:40:27;5.95;;;4.63;;
6505;SDS011;3286;49.858;8.768;2023-08-20T09:42:54;8.32;;;4.38;;
6505;SDS011;3286;49.858;8.768;2023-08-20T09:45:21;7.05;;;4.60;;
6505;SDS011;3286;49.858;8.768;2023-08-20T09:47:51;7.72;;;4.40;;
6505;SDS011;3286;49.858;8.768;2023-08-20T09:50:21;6.03;;;4.05;;
6505;SDS011;3286;49.858;8.768;2023-08-20T09:52:54;4.80;;;4.30;;
6505;SDS011;3286;49.858;8.768;2023-08-20T09:55:27;4.78;;;4.18;;
6505;SDS011;3286;49.858;8.768;2023-08-20T09:57:57;7.68;;;4.32;;
6505;SDS011;3286;49.858;8.768;2023-08-20T10:00:25;5.20;;;3.92;;
6505;SDS011;3286;49.858;8.768;2023-08-20T10:02:54;6.38;;;4.13;;
6505;SDS011;3286;49.858;8.768;2023-08-20T10:05:22;4.35;;;3.90;;
6505;SDS011;3286;49.858;8.768;2023-08-20T10:07:49;4.60;;;4.20;;
6505;SDS011;3286;49.858;8.768;2023-08-20T10:10:16;6.20;;;4.30;;
6505;SDS011;3286;49.858;8.768;2023-08-20T10:12:43;6.72;;;3.72;;
6505;SDS011;3286;49.858;8.768;2023-08-20T10:15:11;6.05;;;4.10;;
6505;SDS011;3286;49.858;8.768;2023-08-20T10:17:40;4.88;;;3.92;;
6505;SDS011;3286;49.858;8.768;2023-08-20T10:20:10;6.07;;;4.10;;
6505;SDS011;3286;49.858;8.768;2023-08-20T10:22:40;6.88;;;4.10;;
6505;SDS011;3286;49.858;8.768;2023-08-20T10:25:10;4.82;;;4.10;;
6505;SDS011;3286;49.858;8.768;2023-08-20T10:27:37;6.35;;;4.10;;
6505;SDS011;3286;49.858;8.768;2023-08-20T10:30:09;4.70;;;4.03;;
6505;SDS011;3286;49.858;8.768;2023-08-20T10:32:45;5.18;;;3.90;;
6505;SDS011;3286;49.858;8.768;2023-08-20T10:35:14;5.72;;;4.10;;
6505;SDS011;3286;49.858;8.768;2023-08-20T10:43:31;5.22;;;3.75;;
6505;SDS011;3286;49.858;8.768;2023-08-20T10:46:06;3.97;;;3.33;;
6505;SDS011;3286;49.858;8.768;2023-08-20T10:48:40;4.38;;;3.60;;
6505;SDS011;3286;49.858;8.768;2023-08-20T10:51:12;4.88;;;3.72;;
6505;SDS011;3286;49.858;8.768;2023-08-20T10:53:40;7.03;;;3.28;;
6505;SDS011;3286;49.858;8.768;2023-08-20T10:56:08;5.07;;;3.50;;
6505;SDS011;3286;49.858;8.768;2023-08-20T10:58:42;5.47;;;3.83;;
6505;SDS011;3286;49.858;8.768;2023-08-20T11:01:14;4.40;;;3.42;;
6505;SDS011;3286;49.858;8.768;2023-08-20T11:03:42;5.47;;;3.83;;
6505;SDS011;3286;49.858;8.768;2023-08-20T11:06:09;5.82;;;3.95;;
6505;SDS011;3286;49.858;8.768;2023-08-20T11:08:38;5.05;;;4.00;;
6505;SDS011;3286;49.858;8.768;2023-08-20T11:11:05;4.85;;;3.60;;
6505;SDS011;3286;49.858;8.768;2023-08-20T11:13:32;4.65;;;3.35;;
6505;SDS011;3286;49.858;8.768;2023-08-20T11:16:00;8.15;;;3.80;;
6505;SDS011;3286;49.858;8.768;2023-08-20T11:18:28;3.95;;;3.25;;
6505;SDS011;3286;49.858;8.768;2023-08-20T11:20:56;5.10;;;3.67;;
6505;SDS011;3286;49.858;8.768;2023-08-20T11:23:24;3.85;;;3.53;;
6505;SDS011;3286;49.858;8.768;2023-08-20T11:25:51;3.60;;;3.20;;
6505;SDS011;3286;49.858;8.768;2023-08-20T11:28:18;4.45;;;3.22;;
6505;SDS011;3286;49.858;8.768;2023-08-20T11:30:46;7.97;;;3.50;;
6505;SDS011;3286;49.858;8.768;2023-08-20T11:33:13;6.22;;;3.50;;
6505;SDS011;3286;49.858;8.768;2023-08-20T11:35:40;5.78;;;3.30;;
6505;SDS011;3286;49.858;8.768;2023-08-20T11:38:07;3.75;;;2.92;;
6505;SDS011;3286;49.858;8.768;2023-08-20T11:40:37;6.60;;;3.85;;
6505;SDS011;3286;49.858;8.768;2023-08-20T11:43:04;6.75;;;3.75;;
6505;SDS011;3286;49.858;8.768;2023-08-20T11:45:31;4.45;;;3.33;;
6505;SDS011;3286;49.858;8.768;2023-08-20T11:47:58;4.18;;;3.60;;
6505;SDS011;3286;49.858;8.768;2023-08-20T11:50:25;5.57;;;3.33;;
6505;SDS011;3286;49.858;8.768;2023-08-20T11:52:52;5.15;;;3.50;;
6505;SDS011;3286;49.858;8.768;2023-08-20T11:55:23;3.28;;;2.97;;
6505;SDS011;3286;49.858;8.768;2023-08-20T11:57:52;4.28;;;3.10;;
6505;SDS011;3286;49.858;8.768;2023-08-20T12:00:25;3.67;;;3.38;;
6505;SDS011;3286;49.858;8.768;2023-08-20T12:02:53;3.53;;;3.22;;
6505;SDS011;3286;49.858;8.768;2023-08-20T12:05:21;3.65;;;3.35;;
6505;SDS011;3286;49.858;8.768;2023-08-20T12:07:55;4.22;;;3.38;;
6505;SDS011;3286;49.858;8.768;2023-08-20T12:10:23;3.75;;;3.38;;
6505;SDS011;3286;49.858;8.768;2023-08-20T12:12:51;7.25;;;3.67;;
6505;SDS011;3286;49.858;8.768;2023-08-20T12:15:18;4.68;;;3.30;;
6505;SDS011;3286;49.858;8.768;2023-08-20T12:20:30;6.93;;;3.40;;
6505;SDS011;3286;49.858;8.768;2023-08-20T12:22:59;7.50;;;3.22;;
6505;SDS011;3286;49.858;8.768;2023-08-20T12:25:27;4.28;;;3.22;;
6505;SDS011;3286;49.858;8.768;2023-08-20T12:27:58;4.60;;;3.47;;
6505;SDS011;3286;49.858;8.768;2023-08-20T12:30:24;3.90;;;3.50;;
6505;SDS011;3286;49.858;8.768;2023-08-20T12:32:51;4.10;;;3.35;;
6505;SDS011;3286;49.858;8.768;2023-08-20T12:35:19;6.97;;;3.65;;
6505;SDS011;3286;49.858;8.768;2023-08-20T12:37:46;3.30;;;3.00;;
6505;SDS011;3286;49.858;8.768;2023-08-20T12:40:12;4.68;;;3.10;;
6505;SDS011;3286;49.858;8.768;2023-08-20T12:42:39;6.25;;;3.75;;
6505;SDS011;3286;49.858;8.768;2023-08-20T12:45:08;3.33;;;3.03;;
6505;SDS011;3286;49.858;8.768;2023-08-20T12:47:37;4.07;;;3.22;;
6505;SDS011;3286;49.858;8.768;2023-08-20T12:50:05;3.38;;;2.70;;
6505;SDS011;3286;49.858;8.768;2023-08-20T12:52:32;4.90;;;2.97;;
6505;SDS011;3286;49.858;8.768;2023-08-20T12:54:59;6.50;;;3.22;;
6505;SDS011;3286;49.858;8.768;2023-08-20T12:57:27;6.68;;;2.88;;
6505;SDS011;3286;49.858;8.768;2023-08-20T12:59:54;4.22;;;2.80;;
6505;SDS011;3286;49.858;8.768;2023-08-20T13:02:22;4.95;;;3.50;;
6505;SDS011;3286;49.858;8.768;2023-08-20T13:04:49;7.38;;;3.25;;
6505;SDS011;3286;49.858;8.768;2023-08-20T13:07:17;3.25;;;2.88;;
6505;SDS011;3286;49.858;8.768;2023-08-20T13:09:44;7.03;;;3.30;;
6505;SDS011;3286;49.858;8.768;2023-08-20T13:12:11;4.32;;;3.38;;
6505;SDS011;3286;49.858;8.768;2023-08-20T13:14:39;7.43;;;3.38;;
6505;SDS011;3286;49.858;8.768;2023-08-20T13:17:07;5.32;;;3.03;;
6505;SDS011;3286;49.858;8.768;2023-08-20T13:19:36;4.75;;;2.97;;
6505;SDS011;3286;49.858;8.768;2023-08-20T13:22:03;5.88;;;2.72;;
6505;SDS011;3286;49.858;8.768;2023-08-20T13:24:30;3.53;;;2.88;;
6505;SDS011;3286;49.858;8.768;2023-08-20T13:26:56;4.90;;;3.05;;
6505;SDS011;3286;49.858;8.768;2023-08-20T13:29:23;3.65;;;3.03;;
6505;SDS011;3286;49.858;8.768;2023-08-20T13:31:50;6.22;;;3.70;;
6505;SDS011;3286;49.858;8.768;2023-08-20T13:34:16;5.22;;;2.60;;
6505;SDS011;3286;49.858;8.768;2023-08-20T13:36:44;4.13;;;3.00;;
6505;SDS011;3286;49.858;8.768;2023-08-20T13:39:12;6.07;;;2.90;;
6505;SDS011;3286;49.858;8.768;2023-08-20T13:41:39;15.95;;;4.70;;
6505;SDS011;3286;49.858;8.768;2023-08-20T13:44:06;20.33;;;5.72;;
6505;SDS011;3286;49.858;8.768;2023-08-20T13:46:34;6.20;;;3.65;;
6505;SDS011;3286;49.858;8.768;2023-08-20T13:49:01;5.68;;;3.05;;
6505;SDS011;3286;49.858;8.768;2023-08-20T13:51:28;6.03;;;3.22;;
6505;SDS011;3286;49.858;8.768;2023-08-20T13:53:56;4.35;;;2.85;;
6505;SDS011;3286;49.858;8.768;2023-08-20T13:56:23;4.70;;;2.30;;
6505;SDS011;3286;49.858;8.768;2023-08-20T13:58:50;4.18;;;2.15;;
6505;SDS011;3286;49.858;8.768;2023-08-20T14:01:17;5.30;;;2.70;;
6505;SDS011;3286;49.858;8.768;2023-08-20T14:03:44;5.20;;;2.75;;
6505;SDS011;3286;49.858;8.768;2023-08-20T14:06:10;3.38;;;2.85;;
6505;SDS011;3286;49.858;8.768;2023-08-20T14:08:37;4.88;;;2.85;;
6505;SDS011;3286;49.858;8.768;2023-08-20T14:11:05;6.07;;;2.97;;
6505;SDS011;3286;49.858;8.768;2023-08-20T14:13:32;4.50;;;3.30;;
6505;SDS011;3286;49.858;8.768;2023-08-20T14:15:59;5.65;;;3.30;;
6505;SDS011;3286;49.858;8.768;2023-08-20T14:18:26;7.30;;;3.20;;
6505;SDS011;3286;49.858;8.768;2023-08-20T14:20:52;6.15;;;3.20;;
6505;SDS011;3286;49.858;8.768;2023-08-20T14:23:20;4.00;;;3.08;;
6505;SDS011;3286;49.858;8.768;2023-08-20T14:25:47;3.95;;;2.85;;
6505;SDS011;3286;49.858;8.768;2023-08-20T14:28:15;4.88;;;3.30;;
6505;SDS011;3286;49.858;8.768;2023-08-20T14:30:41;6.95;;;3.88;;
6505;SDS011;3286;49.858;8.768;2023-08-20T14:33:08;7.68;;;3.40;;
6505;SDS011;3286;49.858;8.768;2023-08-20T14:35:35;5.32;;;3.13;;
6505;SDS011;3286;49.858;8.768;2023-08-20T14:38:02;3.80;;;3.05;;
6505;SDS011;3286;49.858;8.768;2023-08-20T14:40:29;3.47;;;3.15;;
6505;SDS011;3286;49.858;8.768;2023-08-20T14:42:57;4.22;;;3.03;;
6505;SDS011;3286;49.858;8.768;2023-08-20T14:45:24;4.80;;;3.15;;
6505;SDS011;3286;49.858;8.768;2023-08-20T14:47:51;3.17;;;2.88;;
6505;SDS011;3286;49.858;8.768;2023-08-20T14:50:18;7.25;;;3.10;;
6505;SDS011;3286;49.858;8.768;2023-08-20T14:52:44;7.15;;;3.00;;
6505;SDS011;3286;49.858;8.768;2023-08-20T14:55:16;3.97;;;3.17;;
6505;SDS011;3286;49.858;8.768;2023-08-20T14:57:43;6.95;;;2.97;;
6505;SDS011;3286;49.858;8.768;2023-08-20T15:00:10;6.50;;;3.33;;
6505;SDS011;3286;49.858;8.768;2023-08-20T15:02:40;3.72;;;3.10;;
6505;SDS011;3286;49.858;8.768;2023-08-20T15:05:07;6.07;;;3.00;;
6505;SDS011;3286;49.858;8.768;2023-08-20T15:07:34;3.30;;;3.00;;
6505;SDS011;3286;49.858;8.768;2023-08-20T15:10:01;5.85;;;3.40;;
6505;SDS011;3286;49.858;8.768;2023-08-20T15:12:28;3.40;;;3.08;;
6505;SDS011;3286;49.858;8.768;2023-08-20T15:14:54;5.75;;;3.13;;
6505;SDS011;3286;49.858;8.768;2023-08-20T15:17:21;3.58;;;3.13;;
6505;SDS011;3286;49.858;8.768;2023-08-20T15:19:49;6.03;;;3.30;;
6505;SDS011;3286;49.858;8.768;2023-08-20T15:22:16;3.67;;;3.08;;